sensor_id;sensor_type;location;lat;lon;timestamp;temperature;humidity
29007;DHT22;16104;48.642;9.008;2023-10-13T01:02:28;20.70;42.00
29007;DHT22;16104;48.642;9.008;2023-10-13T01:07:30;20.70;42.20
29007;DHT22;16104;48.642;9.008;2023-10-13T01:12:25;20.60;42.30
29007;DHT22;16104;48.642;9.008;2023-10-13T02:03:10;19.80;43.70
29007;DHT22;16104;48.642;9.008;2023-10-13T02:08:16;19.80;43.80
29007;DHT22;16104;48.642;9.008;2023-10-13T02:13:17;19.70;43.90
29007;DHT22;16104;48.642;9.008;2023-10-13T03:04:03;19.50;44.50
29007;DHT22;16104;48.642;9.008;2023-10-13T03:09:00;19.50;44.70
29007;DHT22;16104;48.642;9.008;2023-10-13T03:14:11;19.50;44.70
29007;DHT22;16104;48.642;9.008;2023-10-13T03:19:19;19.50;44.70
29007;DHT22;16104;48.642;9.008;2023-10-13T03:24:14;19.40;44.70
29007;DHT22;16104;48.642;9.008;2023-10-13T03:29:10;19.40;44.80
29007;DHT22;16104;48.642;9.008;2023-10-13T03:34:09;19.40;44.80
29007;DHT22;16104;48.642;9.008;2023-10-13T03:39:07;19.40;44.80
29007;DHT22;16104;48.642;9.008;2023-10-13T03:44:03;19.40;44.80
29007;DHT22;16104;48.642;9.008;2023-10-13T03:49:09;19.40;44.90
29007;DHT22;16104;48.642;9.008;2023-10-13T03:54:08;19.40;44.90
29007;DHT22;16104;48.642;9.008;2023-10-13T03:59:05;19.40;44.80
29007;DHT22;16104;48.642;9.008;2023-10-13T04:04:21;19.40;45.00
29007;DHT22;16104;48.642;9.008;2023-10-13T04:09:36;19.40;44.90
29007;DHT22;16104;48.642;9.008;2023-10-13T04:14:35;19.40;45.00
29007;DHT22;16104;48.642;9.008;2023-10-13T04:19:51;19.40;45.00
29007;DHT22;16104;48.642;9.008;2023-10-13T04:25:02;19.40;44.90
29007;DHT22;16104;48.642;9.008;2023-10-13T04:30:17;19.40;45.00
29007;DHT22;16104;48.642;9.008;2023-10-13T04:35:22;19.40;45.10
29007;DHT22;16104;48.642;9.008;2023-10-13T04:40:20;19.30;45.10
29007;DHT22;16104;48.642;9.008;2023-10-13T04:45:20;19.30;45.20
29007;DHT22;16104;48.642;9.008;2023-10-13T04:50:28;19.20;45.20
29007;DHT22;16104;48.642;9.008;2023-10-13T04:55:36;19.10;45.30
29007;DHT22;16104;48.642;9.008;2023-10-13T05:00:44;19.00;45.30
29007;DHT22;16104;48.642;9.008;2023-10-13T05:06:11;19.00;45.50
29007;DHT22;16104;48.642;9.008;2023-10-13T05:11:26;18.90;45.60
29007;DHT22;16104;48.642;9.008;2023-10-13T05:16:41;18.90;45.60
29007;DHT22;16104;48.642;9.008;2023-10-13T05:21:55;18.80;45.80
29007;DHT22;16104;48.642;9.008;2023-10-13T05:27:09;18.80;45.90
29007;DHT22;16104;48.642;9.008;2023-10-13T05:32:24;18.80;45.90
29007;DHT22;16104;48.642;9.008;2023-10-13T05:37:38;18.80;45.90
29007;DHT22;16104;48.642;9.008;2023-10-13T05:42:52;18.70;45.90
29007;DHT22;16104;48.642;9.008;2023-10-13T05:48:06;18.70;45.90
29007;DHT22;16104;48.642;9.008;2023-10-13T05:53:10;18.70;46.00
29007;DHT22;16104;48.642;9.008;2023-10-13T05:58:06;18.70;46.10
29007;DHT22;16104;48.642;9.008;2023-10-13T06:03:20;18.70;46.30
29007;DHT22;16104;48.642;9.008;2023-10-13T06:08:34;18.70;47.00
29007;DHT22;16104;48.642;9.008;2023-10-13T06:13:48;18.60;46.30
29007;DHT22;16104;48.642;9.008;2023-10-13T06:19:03;18.60;46.50
29007;DHT22;16104;48.642;9.008;2023-10-13T06:24:17;18.60;46.60
29007;DHT22;16104;48.642;9.008;2023-10-13T06:29:31;18.70;46.80
29007;DHT22;16104;48.642;9.008;2023-10-13T06:34:30;18.70;46.80
29007;DHT22;16104;48.642;9.008;2023-10-13T06:39:42;18.70;46.90
29007;DHT22;16104;48.642;9.008;2023-10-13T06:44:42;18.80;46.90
29007;DHT22;16104;48.642;9.008;2023-10-13T06:49:41;18.80;46.90
29007;DHT22;16104;48.642;9.008;2023-10-13T06:54:38;18.80;47.00
29007;DHT22;16104;48.642;9.008;2023-10-13T06:59:34;18.90;47.10
29007;DHT22;16104;48.642;9.008;2023-10-13T07:04:32;18.80;47.10
29007;DHT22;16104;48.642;9.008;2023-10-13T07:09:28;19.00;47.30
29007;DHT22;16104;48.642;9.008;2023-10-13T07:14:29;19.00;47.20
29007;DHT22;16104;48.642;9.008;2023-10-13T07:19:29;19.10;47.20
29007;DHT22;16104;48.642;9.008;2023-10-13T07:24:26;19.20;47.20
29007;DHT22;16104;48.642;9.008;2023-10-13T07:29:26;19.30;47.30
29007;DHT22;16104;48.642;9.008;2023-10-13T07:34:24;19.40;47.40
29007;DHT22;16104;48.642;9.008;2023-10-13T07:39:22;19.50;47.10
29007;DHT22;16104;48.642;9.008;2023-10-13T07:44:19;19.50;47.50
29007;DHT22;16104;48.642;9.008;2023-10-13T07:49:27;19.70;47.00
29007;DHT22;16104;48.642;9.008;2023-10-13T07:54:26;19.80;47.00
29007;DHT22;16104;48.642;9.008;2023-10-13T07:59:21;19.80;46.80
29007;DHT22;16104;48.642;9.008;2023-10-13T08:04:18;20.00;46.70
29007;DHT22;16104;48.642;9.008;2023-10-13T08:09:23;20.00;46.50
29007;DHT22;16104;48.642;9.008;2023-10-13T08:14:25;20.10;46.50
29007;DHT22;16104;48.642;9.008;2023-10-13T08:19:26;20.20;46.60
29007;DHT22;16104;48.642;9.008;2023-10-13T08:24:40;20.30;46.40
29007;DHT22;16104;48.642;9.008;2023-10-13T08:29:36;20.40;46.20
29007;DHT22;16104;48.642;9.008;2023-10-13T08:34:47;20.50;46.20
29007;DHT22;16104;48.642;9.008;2023-10-13T08:39:43;20.60;45.90
29007;DHT22;16104;48.642;9.008;2023-10-13T08:44:54;20.80;45.80
29007;DHT22;16104;48.642;9.008;2023-10-13T08:49:49;21.00;45.70
29007;DHT22;16104;48.642;9.008;2023-10-13T08:54:48;21.20;45.30
29007;DHT22;16104;48.642;9.008;2023-10-13T08:59:59;21.40;45.10
29007;DHT22;16104;48.642;9.008;2023-10-13T09:05:14;21.60;44.80
29007;DHT22;16104;48.642;9.008;2023-10-13T09:10:29;21.80;44.70
29007;DHT22;16104;48.642;9.008;2023-10-13T09:15:44;22.00;44.40
29007;DHT22;16104;48.642;9.008;2023-10-13T09:20:59;22.20;43.90
29007;DHT22;16104;48.642;9.008;2023-10-13T09:26:13;22.40;43.70
29007;DHT22;16104;48.642;9.008;2023-10-13T09:31:09;22.60;43.70
29007;DHT22;16104;48.642;9.008;2023-10-13T09:36:07;22.90;43.60
29007;DHT22;16104;48.642;9.008;2023-10-13T09:41:07;23.10;42.20
29007;DHT22;16104;48.642;9.008;2023-10-13T09:46:19;23.40;41.40
29007;DHT22;16104;48.642;9.008;2023-10-13T09:51:16;23.60;41.30
29007;DHT22;16104;48.642;9.008;2023-10-13T09:56:21;24.00;40.40
29007;DHT22;16104;48.642;9.008;2023-10-13T10:01:27;24.20;39.30
29007;DHT22;16104;48.642;9.008;2023-10-13T10:06:26;24.50;39.30
29007;DHT22;16104;48.642;9.008;2023-10-13T10:16:37;25.10;38.60
29007;DHT22;16104;48.642;9.008;2023-10-13T10:21:38;25.40;37.40
29007;DHT22;16104;48.642;9.008;2023-10-13T10:26:34;25.80;38.10
29007;DHT22;16104;48.642;9.008;2023-10-13T10:31:32;26.10;37.60
29007;DHT22;16104;48.642;9.008;2023-10-13T10:36:35;26.40;36.60
29007;DHT22;16104;48.642;9.008;2023-10-13T10:41:32;26.70;35.80
29007;DHT22;16104;48.642;9.008;2023-10-13T10:46:47;26.90;35.40
29007;DHT22;16104;48.642;9.008;2023-10-13T10:51:53;27.10;35.00
29007;DHT22;16104;48.642;9.008;2023-10-13T10:56:55;27.30;34.20
29007;DHT22;16104;48.642;9.008;2023-10-13T11:01:51;27.40;33.40
29007;DHT22;16104;48.642;9.008;2023-10-13T11:06:48;27.60;33.50
29007;DHT22;16104;48.642;9.008;2023-10-13T11:11:47;27.80;33.40
29007;DHT22;16104;48.642;9.008;2023-10-13T11:16:48;27.90;32.40
29007;DHT22;16104;48.642;9.008;2023-10-13T11:21:46;28.10;32.40
29007;DHT22;16104;48.642;9.008;2023-10-13T11:26:43;28.20;32.60
29007;DHT22;16104;48.642;9.008;2023-10-13T11:31:48;28.40;32.70
29007;DHT22;16104;48.642;9.008;2023-10-13T11:36:50;28.60;32.00
29007;DHT22;16104;48.642;9.008;2023-10-13T11:41:45;28.90;32.00
29007;DHT22;16104;48.642;9.008;2023-10-13T11:46:46;29.20;31.80
29007;DHT22;16104;48.642;9.008;2023-10-13T11:51:42;29.50;31.10
29007;DHT22;16104;48.642;9.008;2023-10-13T11:56:41;29.80;30.60
29007;DHT22;16104;48.642;9.008;2023-10-13T12:01:37;30.00;30.30
29007;DHT22;16104;48.642;9.008;2023-10-13T12:06:51;30.30;30.10
29007;DHT22;16104;48.642;9.008;2023-10-13T12:12:07;30.50;29.80
29007;DHT22;16104;48.642;9.008;2023-10-13T12:17:04;30.80;29.10
29007;DHT22;16104;48.642;9.008;2023-10-13T12:22:00;31.00;28.90
29007;DHT22;16104;48.642;9.008;2023-10-13T12:27:03;31.10;28.20
29007;DHT22;16104;48.642;9.008;2023-10-13T12:32:14;31.30;28.20
29007;DHT22;16104;48.642;9.008;2023-10-13T12:37:16;31.50;27.60
29007;DHT22;16104;48.642;9.008;2023-10-13T12:42:33;31.60;27.70
29007;DHT22;16104;48.642;9.008;2023-10-13T12:47:48;31.80;27.50
29007;DHT22;16104;48.642;9.008;2023-10-13T12:53:16;31.90;27.00
29007;DHT22;16104;48.642;9.008;2023-10-13T12:58:11;32.10;26.10
29007;DHT22;16104;48.642;9.008;2023-10-13T13:03:06;32.20;25.70
29007;DHT22;16104;48.642;9.008;2023-10-13T13:08:08;32.30;25.10
29007;DHT22;16104;48.642;9.008;2023-10-13T13:13:04;32.20;25.20
29007;DHT22;16104;48.642;9.008;2023-10-13T13:18:00;32.30;25.30
29007;DHT22;16104;48.642;9.008;2023-10-13T13:23:05;32.40;24.80
29007;DHT22;16104;48.642;9.008;2023-10-13T13:28:01;32.40;24.90
29007;DHT22;16104;48.642;9.008;2023-10-13T13:33:00;32.50;24.70
29007;DHT22;16104;48.642;9.008;2023-10-13T13:37:59;32.60;24.50
29007;DHT22;16104;48.642;9.008;2023-10-13T13:43:01;32.60;24.30
29007;DHT22;16104;48.642;9.008;2023-10-13T13:47:57;32.70;24.30
29007;DHT22;16104;48.642;9.008;2023-10-13T13:52:53;32.70;24.20
29007;DHT22;16104;48.642;9.008;2023-10-13T13:57:51;32.70;23.90
29007;DHT22;16104;48.642;9.008;2023-10-13T14:02:46;32.80;25.90
29007;DHT22;16104;48.642;9.008;2023-10-13T14:07:45;32.80;23.90
29007;DHT22;16104;48.642;9.008;2023-10-13T14:12:44;32.80;23.70
29007;DHT22;16104;48.642;9.008;2023-10-13T14:17:39;32.70;23.60
29007;DHT22;16104;48.642;9.008;2023-10-13T14:22:37;32.70;23.40
29007;DHT22;16104;48.642;9.008;2023-10-13T14:27:34;32.70;25.00
29007;DHT22;16104;48.642;9.008;2023-10-13T14:32:30;32.80;23.20
29007;DHT22;16104;48.642;9.008;2023-10-13T14:37:26;32.70;22.80
29007;DHT22;16104;48.642;9.008;2023-10-13T14:42:23;32.70;22.80
29007;DHT22;16104;48.642;9.008;2023-10-13T14:47:18;32.60;22.70
29007;DHT22;16104;48.642;9.008;2023-10-13T14:52:20;32.60;22.50
29007;DHT22;16104;48.642;9.008;2023-10-13T14:57:16;32.50;22.10
29007;DHT22;16104;48.642;9.008;2023-10-13T15:02:11;32.40;22.30
29007;DHT22;16104;48.642;9.008;2023-10-13T15:07:07;32.40;22.00
29007;DHT22;16104;48.642;9.008;2023-10-13T15:12:03;32.30;21.70
29007;DHT22;16104;48.642;9.008;2023-10-13T15:17:01;32.20;21.70
29007;DHT22;16104;48.642;9.008;2023-10-13T15:21:57;32.10;21.70
29007;DHT22;16104;48.642;9.008;2023-10-13T15:26:54;32.00;21.70
29007;DHT22;16104;48.642;9.008;2023-10-13T15:31:57;31.90;22.00
29007;DHT22;16104;48.642;9.008;2023-10-13T15:36:57;31.80;21.90
29007;DHT22;16104;48.642;9.008;2023-10-13T15:41:52;31.70;21.70
29007;DHT22;16104;48.642;9.008;2023-10-13T15:46:48;31.60;21.90
29007;DHT22;16104;48.642;9.008;2023-10-13T15:51:44;31.40;21.80
29007;DHT22;16104;48.642;9.008;2023-10-13T15:56:40;31.20;21.70
29007;DHT22;16104;48.642;9.008;2023-10-13T16:01:36;31.00;22.00
29007;DHT22;16104;48.642;9.008;2023-10-13T16:06:34;30.90;22.10
29007;DHT22;16104;48.642;9.008;2023-10-13T16:11:30;30.70;22.30
29007;DHT22;16104;48.642;9.008;2023-10-13T16:16:25;30.50;22.40
29007;DHT22;16104;48.642;9.008;2023-10-13T16:21:21;30.30;22.60
29007;DHT22;16104;48.642;9.008;2023-10-13T16:26:19;30.10;23.10
29007;DHT22;16104;48.642;9.008;2023-10-13T16:31:17;29.90;23.20
29007;DHT22;16104;48.642;9.008;2023-10-13T16:36:13;29.80;23.60
29007;DHT22;16104;48.642;9.008;2023-10-13T16:41:09;29.50;23.60
29007;DHT22;16104;48.642;9.008;2023-10-13T16:46:13;29.40;23.90
29007;DHT22;16104;48.642;9.008;2023-10-13T16:51:10;29.20;24.00
29007;DHT22;16104;48.642;9.008;2023-10-13T16:56:08;29.00;24.20
29007;DHT22;16104;48.642;9.008;2023-10-13T17:01:09;28.80;24.70
29007;DHT22;16104;48.642;9.008;2023-10-13T17:06:06;28.60;24.70
29007;DHT22;16104;48.642;9.008;2023-10-13T17:11:13;28.40;24.70
29007;DHT22;16104;48.642;9.008;2023-10-13T17:16:13;28.20;25.00
29007;DHT22;16104;48.642;9.008;2023-10-13T17:21:23;28.00;25.20
29007;DHT22;16104;48.642;9.008;2023-10-13T17:26:28;27.80;25.60
29007;DHT22;16104;48.642;9.008;2023-10-13T17:31:24;27.60;26.00
29007;DHT22;16104;48.642;9.008;2023-10-13T17:36:22;27.40;26.20
29007;DHT22;16104;48.642;9.008;2023-10-13T17:41:17;27.20;26.70
29007;DHT22;16104;48.642;9.008;2023-10-13T17:46:13;26.90;27.10
29007;DHT22;16104;48.642;9.008;2023-10-13T17:51:10;26.80;27.70
29007;DHT22;16104;48.642;9.008;2023-10-13T17:56:10;26.60;28.10
29007;DHT22;16104;48.642;9.008;2023-10-13T18:01:11;26.40;28.40
29007;DHT22;16104;48.642;9.008;2023-10-13T18:06:12;26.30;28.20
29007;DHT22;16104;48.642;9.008;2023-10-13T18:11:11;26.10;28.60
29007;DHT22;16104;48.642;9.008;2023-10-13T18:16:17;26.00;29.00
29007;DHT22;16104;48.642;9.008;2023-10-13T18:21:13;25.80;29.40
29007;DHT22;16104;48.642;9.008;2023-10-13T18:26:10;25.70;29.30
29007;DHT22;16104;48.642;9.008;2023-10-13T18:31:10;25.60;29.40
29007;DHT22;16104;48.642;9.008;2023-10-13T18:36:17;25.50;29.60
29007;DHT22;16104;48.642;9.008;2023-10-13T18:41:13;25.30;29.80
29007;DHT22;16104;48.642;9.008;2023-10-13T18:46:11;25.20;29.80
29007;DHT22;16104;48.642;9.008;2023-10-13T18:51:08;25.20;30.00
29007;DHT22;16104;48.642;9.008;2023-10-13T18:56:08;25.00;30.20
29007;DHT22;16104;48.642;9.008;2023-10-13T19:01:10;24.90;30.20
29007;DHT22;16104;48.642;9.008;2023-10-13T19:06:11;24.90;30.40
29007;DHT22;16104;48.642;9.008;2023-10-13T19:11:10;24.80;30.30
29007;DHT22;16104;48.642;9.008;2023-10-13T19:16:08;24.70;30.30
29007;DHT22;16104;48.642;9.008;2023-10-13T19:21:07;24.60;30.20
29007;DHT22;16104;48.642;9.008;2023-10-13T19:26:13;24.50;30.10
29007;DHT22;16104;48.642;9.008;2023-10-13T19:31:10;24.50;29.90
29007;DHT22;16104;48.642;9.008;2023-10-13T19:36:11;24.40;29.80
29007;DHT22;16104;48.642;9.008;2023-10-13T19:41:13;24.40;29.60
29007;DHT22;16104;48.642;9.008;2023-10-13T19:46:12;24.30;29.60
29007;DHT22;16104;48.642;9.008;2023-10-13T19:51:11;24.20;29.50
29007;DHT22;16104;48.642;9.008;2023-10-13T19:56:14;24.20;29.50
29007;DHT22;16104;48.642;9.008;2023-10-13T20:01:13;24.10;29.30
29007;DHT22;16104;48.642;9.008;2023-10-13T20:06:14;24.10;29.50
29007;DHT22;16104;48.642;9.008;2023-10-13T20:11:16;24.00;29.50
29007;DHT22;16104;48.642;9.008;2023-10-13T20:16:13;24.00;29.60
29007;DHT22;16104;48.642;9.008;2023-10-13T20:21:14;23.90;29.60
29007;DHT22;16104;48.642;9.008;2023-10-13T20:26:10;23.80;29.70
29007;DHT22;16104;48.642;9.008;2023-10-13T20:31:10;23.80;29.70
29007;DHT22;16104;48.642;9.008;2023-10-13T20:36:08;23.70;29.80
29007;DHT22;16104;48.642;9.008;2023-10-13T20:41:05;23.70;29.80
29007;DHT22;16104;48.642;9.008;2023-10-13T20:46:06;23.60;29.80
29007;DHT22;16104;48.642;9.008;2023-10-13T20:51:05;23.50;29.70
29007;DHT22;16104;48.642;9.008;2023-10-13T20:56:01;23.50;29.70
29007;DHT22;16104;48.642;9.008;2023-10-13T21:01:09;23.50;29.70
29007;DHT22;16104;48.642;9.008;2023-10-13T21:06:06;23.40;29.60
29007;DHT22;16104;48.642;9.008;2023-10-13T21:11:03;23.40;29.70
29007;DHT22;16104;48.642;9.008;2023-10-13T21:16:01;23.30;29.70
29007;DHT22;16104;48.642;9.008;2023-10-13T21:21:11;23.30;29.60
29007;DHT22;16104;48.642;9.008;2023-10-13T21:26:24;23.30;29.50
29007;DHT22;16104;48.642;9.008;2023-10-13T21:31:22;23.20;29.60
29007;DHT22;16104;48.642;9.008;2023-10-13T21:36:17;23.20;29.60
29007;DHT22;16104;48.642;9.008;2023-10-13T21:41:14;23.30;29.60
29007;DHT22;16104;48.642;9.008;2023-10-13T21:46:14;23.30;29.60
29007;DHT22;16104;48.642;9.008;2023-10-13T21:51:17;23.40;29.60
29007;DHT22;16104;48.642;9.008;2023-10-13T21:56:23;23.30;29.60
29007;DHT22;16104;48.642;9.008;2023-10-13T22:01:26;23.30;29.60
29007;DHT22;16104;48.642;9.008;2023-10-13T22:06:25;23.20;29.60
29007;DHT22;16104;48.642;9.008;2023-10-13T22:11:25;23.40;29.60
29007;DHT22;16104;48.642;9.008;2023-10-13T22:16:21;23.30;29.70
29007;DHT22;16104;48.642;9.008;2023-10-13T22:21:19;23.20;29.80
29007;DHT22;16104;48.642;9.008;2023-10-13T22:26:20;23.30;29.80
29007;DHT22;16104;48.642;9.008;2023-10-13T22:31:23;23.20;30.00
29007;DHT22;16104;48.642;9.008;2023-10-13T22:36:19;23.20;30.00
29007;DHT22;16104;48.642;9.008;2023-10-13T22:41:30;23.20;30.00
29007;DHT22;16104;48.642;9.008;2023-10-13T22:46:28;23.20;30.20
29007;DHT22;16104;48.642;9.008;2023-10-13T22:51:24;23.10;30.40
29007;DHT22;16104;48.642;9.008;2023-10-13T22:56:21;23.10;30.50
29007;DHT22;16104;48.642;9.008;2023-10-13T23:01:17;23.10;30.60
29007;DHT22;16104;48.642;9.008;2023-10-13T23:06:13;23.20;30.80
29007;DHT22;16104;48.642;9.008;2023-10-13T23:11:16;23.20;31.10
29007;DHT22;16104;48.642;9.008;2023-10-13T23:16:20;23.20;31.20
29007;DHT22;16104;48.642;9.008;2023-10-13T23:21:19;23.20;31.30
29007;DHT22;16104;48.642;9.008;2023-10-13T23:26:15;23.20;31.40
29007;DHT22;16104;48.642;9.008;2023-10-13T23:31:11;23.20;31.50
29007;DHT22;16104;48.642;9.008;2023-10-13T23:36:07;23.20;31.70
29007;DHT22;16104;48.642;9.008;2023-10-13T23:41:06;23.20;31.90
29007;DHT22;16104;48.642;9.008;2023-10-13T23:46:08;23.20;32.10
29007;DHT22;16104;48.642;9.008;2023-10-13T23:51:05;23.20;32.50
29007;DHT22;16104;48.642;9.008;2023-10-13T23:56:03;23.20;33.10
